createdAt,value
2018-10-04T00:12:06.326Z,2
2018-10-04T00:26:50.947Z,2
2018-10-04T00:41:48.246Z,2.1
2018-10-04T00:57:15.192Z,2.1
2018-10-04T01:12:41.645Z,2
2018-10-04T01:27:25.052Z,2
2018-10-04T01:42:21.184Z,1.8
2018-10-04T02:11:46.680Z,1.8
2018-10-04T02:26:50.941Z,2.1
2018-10-04T02:42:03.407Z,1.9
2018-10-04T02:57:17.924Z,1.9
2018-10-04T03:12:10.995Z,1.9
2018-10-04T03:27:01.022Z,1.9
2018-10-04T03:41:53.247Z,1.7
2018-10-04T03:57:36.532Z,1.8
2018-10-04T04:12:31.387Z,1.9
2018-10-04T04:27:16.252Z,1.8
2018-10-04T04:41:48.953Z,1.8
2018-10-04T04:57:45.206Z,1.5
2018-10-04T05:11:55.266Z,1.7
2018-10-04T05:26:49.982Z,1.6
2018-10-04T05:42:43.250Z,1.8
2018-10-04T05:57:01.132Z,1.7
2018-10-04T06:11:56.442Z,1.9
2018-10-04T06:27:20.296Z,1.7
2018-10-04T06:42:36.808Z,2
2018-10-04T06:57:39.420Z,1.8
2018-10-04T07:12:42.584Z,1.6
2018-10-04T07:26:54.384Z,1.7
2018-10-04T07:42:01.644Z,1.6
2018-10-04T07:57:40.297Z,1.7
2018-10-04T08:11:59.197Z,1.5
2018-10-04T08:27:19.440Z,1.6
2018-10-04T08:42:19.381Z,1.6
2018-10-04T08:57:01.974Z,1.4
2018-10-04T09:12:07.120Z,1.5
2018-10-04T09:27:37.982Z,1.4
2018-10-04T09:42:27.703Z,1.4
2018-10-04T09:57:22.938Z,1.5
2018-10-04T10:12:18.895Z,1.5
2018-10-04T10:27:03.020Z,1.7
2018-10-04T10:39:01.273Z,1.7
2018-10-04T10:41:58.621Z,1.4
2018-10-04T10:57:22.740Z,1.5
2018-10-04T11:11:50.671Z,1.3
2018-10-04T11:27:09.235Z,1.5
2018-10-04T11:41:58.198Z,1.4
2018-10-04T11:57:16.611Z,1.4
2018-10-04T12:27:41.755Z,1.6
2018-10-04T12:42:02.171Z,1.4
2018-10-04T12:57:25.762Z,1.4
2018-10-04T13:12:57.604Z,1.5
2018-10-04T13:27:10.664Z,1.4
2018-10-04T13:42:35.322Z,1.2
2018-10-04T13:57:36.790Z,1.3
2018-10-04T14:11:54.121Z,1.2
2018-10-04T14:27:11.102Z,1.5
2018-10-04T14:42:30.082Z,1.3
2018-10-04T14:57:36.950Z,1.4
2018-10-04T15:12:51.783Z,1.3
2018-10-04T15:42:14.391Z,1.4
2018-10-04T15:57:41.937Z,1.3
2018-10-04T16:12:55.246Z,1.4
2018-10-04T16:25:20.835Z,1.4
2018-10-04T16:42:20.130Z,1.5
2018-10-04T16:57:01.560Z,1.6
2018-10-04T17:12:43.899Z,1.6
2018-10-04T17:27:38.197Z,1.8
2018-10-04T17:42:38.274Z,1.7
2018-10-04T17:57:47.144Z,1.7
2018-10-04T18:12:01.788Z,1.8
2018-10-04T18:27:03.401Z,1.7
2018-10-04T18:41:58.068Z,1.8
2018-10-04T18:57:53.541Z,1.9
2018-10-04T19:12:37.022Z,2
2018-10-04T19:27:01.625Z,2.1
2018-10-04T19:42:02.220Z,2
2018-10-04T19:57:04.594Z,2.1
2018-10-04T20:12:46.993Z,2.1
2018-10-04T20:27:39.659Z,2.1
2018-10-04T20:42:18.277Z,1.9
2018-10-04T20:57:17.712Z,2
2018-10-04T21:27:16.544Z,2.2
2018-10-04T21:42:23.609Z,2
2018-10-04T21:57:13.150Z,2.1
2018-10-04T22:12:04.669Z,2.1
2018-10-04T22:27:51.721Z,2.1
2018-10-04T22:42:41.488Z,2.2
2018-10-04T22:57:33.020Z,2.3
2018-10-04T23:12:25.407Z,2.2
2018-10-04T23:27:26.568Z,2.2
2018-10-04T23:42:15.843Z,2.1
2018-10-04T23:57:54.251Z,2.2
